Time;durP1;ratioP1;P1;durP2;ratioP2;P2;SDS_P1;SDS_P2;PMS_P1;PMS_P2;Temp;Humidity;BMP_temperature;BMP_pressure;BME280_temperature;BME280_humidity;BME280_pressure;Samples;Min_cycle;Max_cycle;Signal;HPM_P1;HPM_P2
2021/10/09 00:00:11;;;;;;;;;;;13.50;99.90;13.70;99996.00;;;;343837;28;96772;-91
2021/10/09 00:00:22;;;;;;;;;;;13.50;99.90;13.80;99995.00;;;;345674;28;84013;-91
2021/10/09 00:00:34;;;;;;;;;;;13.50;99.90;13.80;99998.00;;;;345287;28;95500;-91
2021/10/09 00:00:46;;;;;;;;;;;13.50;99.90;13.90;99991.00;;;;347462;28;83529;-91
2021/10/09 00:00:58;;;;;;;;;;;13.50;99.90;13.90;100001.00;;;;343923;28;96535;-91
2021/10/09 00:01:10;;;;;;;;;;;13.50;99.90;13.80;99998.00;;;;345930;28;82599;-92
2021/10/09 00:01:22;;;;;;;;;;;13.50;99.90;13.80;99999.00;;;;343904;28;95309;-92
2021/10/09 00:01:34;;;;;;;;;;;13.40;99.90;13.80;99995.00;;;;344677;28;82632;-91
2021/10/09 00:01:46;;;;;;;;;;;13.40;99.90;13.90;99989.00;;;;343883;28;97585;-92
2021/10/09 00:01:58;;;;;;;;;;;13.50;99.90;14.00;100003.00;;;;344803;28;82480;-92
2021/10/09 00:02:10;;;;;;;;;;;13.50;99.90;14.00;100002.00;;;;343913;28;96899;-91
2021/10/09 00:02:21;;;;;;;;;;;13.50;99.90;14.00;99998.00;;;;346087;28;82521;-92
2021/10/09 00:02:33;;;;;;;;;;;13.50;99.90;14.00;100004.00;;;;345250;28;95574;-92
2021/10/09 00:02:45;;;;;;;;;;;13.50;99.90;13.90;100005.00;;;;344470;28;82517;-91
2021/10/09 00:02:57;;;;;;;;;;;13.50;99.90;13.90;100000.00;;;;345223;28;95503;-92
2021/10/09 00:03:09;;;;;;;;;;;13.50;99.90;13.90;100006.00;;;;346899;28;83578;-91
2021/10/09 00:03:20;;;;;;;;;;;13.50;99.90;13.80;100003.00;;;;343934;28;95437;-91
2021/10/09 00:03:32;;;;;;;;;;;13.50;99.90;13.90;100003.00;;;;346116;28;83375;-91
2021/10/09 00:03:44;;;;;;;;;;;13.50;99.90;13.90;100004.00;;;;345044;28;97732;-91
2021/10/09 00:03:56;;;;;;;;;;;13.50;99.90;13.90;100007.00;;;;347564;28;82358;-91
2021/10/09 00:04:07;;;;;;;;;;;13.50;99.90;13.90;100000.00;;;;346639;28;95993;-91
2021/10/09 00:04:19;;;;;;;;;;;13.50;99.90;14.00;100000.00;;;;346024;28;82576;-92
2021/10/09 00:04:31;;;;;;;;;;;13.50;99.90;14.00;100003.00;;;;345314;28;96962;-91
2021/10/09 00:04:43;;;;;;;;;;;13.50;99.90;13.90;99989.00;;;;348882;27;83519;-91
2021/10/09 00:04:54;;;;;;;;;;;13.50;99.90;13.90;99996.00;;;;345313;28;95017;-91
2021/10/09 00:05:06;;;;;;;;;;;13.50;99.90;14.00;100004.00;;;;346136;28;82216;-92
2021/10/09 00:05:18;;;;;;;;;;;13.50;99.90;14.00;99997.00;;;;346635;28;96912;-91
2021/10/09 00:05:30;;;;;;;;;;;13.50;99.90;13.90;100000.00;;;;347353;28;82494;-91
2021/10/09 00:05:42;;;;;;;;;;;13.50;99.90;13.90;100003.00;;;;346441;28;97295;-91
2021/10/09 00:05:53;;;;;;;;;;;13.50;99.90;13.90;100000.00;;;;347359;28;83628;-91
2021/10/09 00:06:05;;;;;;;;;;;13.50;99.90;14.00;100002.00;;;;346656;27;95996;-92
2021/10/09 00:06:17;;;;;;;;;;;13.50;99.90;13.90;99991.00;;;;347346;27;82463;-92
2021/10/09 00:06:29;;;;;;;;;;;13.50;99.90;14.00;99994.00;;;;345291;28;96573;-92
2021/10/09 00:06:41;;;;;;;;;;;13.50;99.90;14.00;100006.00;;;;347458;28;83348;-91
2021/10/09 00:06:52;;;;;;;;;;;13.50;99.90;14.00;100001.00;;;;345163;28;95535;-91
2021/10/09 00:07:04;;;;;;;;;;;13.50;99.90;14.00;100000.00;;;;346101;28;83463;-91
2021/10/09 00:07:16;;;;;;;;;;;13.50;99.90;13.80;100000.00;;;;346747;28;95185;-92
2021/10/09 00:07:28;;;;;;;;;;;13.50;99.90;13.80;100002.00;;;;343390;28;82518;-91
2021/10/09 00:07:40;;;;;;;;;;;13.50;99.90;13.80;99998.00;;;;343851;28;96458;-92
2021/10/09 00:07:51;;;;;;;;;;;13.50;99.90;13.80;100001.00;;;;347475;28;83402;-91
2021/10/09 00:08:08;;;;;;;;;;;13.50;99.90;13.80;100000.00;;;;345300;28;96717;-91
2021/10/09 00:08:20;;;;;;;;;;;13.50;99.90;13.80;99990.00;;;;346033;28;84214;-91
2021/10/09 00:08:32;;;;;;;;;;;13.50;99.90;13.70;100003.00;;;;345345;28;96291;-91
2021/10/09 00:08:44;;;;;;;;;;;13.50;99.90;13.80;100003.00;;;;343299;28;82470;-92
2021/10/09 00:08:55;;;;;;;;;;;13.40;99.90;13.80;99993.00;;;;343836;28;95267;-92
2021/10/09 00:09:09;;;;;;;;;;;13.40;99.90;13.80;99996.00;;;;346737;28;83619;-92
2021/10/09 00:09:21;;;;;;;;;;;13.40;99.90;13.80;99994.00;;;;346848;28;96664;-91
2021/10/09 00:09:33;;;;;;;;;;;13.40;99.90;13.80;99999.00;;;;346000;28;83411;-91
2021/10/09 00:09:45;;;;;;;;;;;13.40;99.90;13.70;100003.00;;;;345039;28;97561;-91
2021/10/09 00:10:03;;;;;;;;;;;13.40;99.90;13.70;99994.00;;;;348890;27;82555;-92
2021/10/09 00:10:24;;;;;;;;;;;13.40;99.90;13.70;100008.00;;;;343921;28;96931;-91
2021/10/09 00:10:36;;;;;;;;;;;13.40;99.90;13.70;99998.00;;;;344676;28;83339;-91
2021/10/09 00:10:48;;;;;;;;;;;13.40;99.90;13.70;99998.00;;;;343742;28;96978;-91
2021/10/09 00:11:01;;;;;;;;;;;13.40;99.90;13.80;99998.00;;;;344794;28;83244;-91
2021/10/09 00:11:33;;;;;;;;;;;13.40;99.90;13.90;99997.00;;;;345336;28;95300;-91
2021/10/09 00:11:45;;;;;;;;;;;13.40;99.90;13.80;100003.00;;;;348516;27;83543;-91
2021/10/09 00:11:56;;;;;;;;;;;13.40;99.90;13.80;100003.00;;;;346559;28;95459;-91
2021/10/09 00:12:08;;;;;;;;;;;13.40;99.90;13.70;99995.00;;;;345941;28;83432;-92
2021/10/09 00:12:20;;;;;;;;;;;13.40;99.90;13.60;100004.00;;;;342451;28;96425;-92
2021/10/09 00:12:32;;;;;;;;;;;13.30;99.90;13.60;100000.00;;;;346161;28;82475;-91
2021/10/09 00:12:43;;;;;;;;;;;13.30;99.90;13.60;100002.00;;;;346507;28;96463;-91
2021/10/09 00:12:55;;;;;;;;;;;13.30;99.90;13.60;99994.00;;;;344573;28;83399;-92
2021/10/09 00:13:08;;;;;;;;;;;13.30;99.90;13.60;99998.00;;;;346583;28;96407;-92
2021/10/09 00:13:19;;;;;;;;;;;13.30;99.90;13.50;100004.00;;;;346108;28;83360;-92
2021/10/09 00:13:31;;;;;;;;;;;13.30;99.90;13.50;99997.00;;;;346736;28;96562;-92
2021/10/09 00:13:43;;;;;;;;;;;13.30;99.90;13.50;100002.00;;;;347377;28;83446;-91
2021/10/09 00:13:55;;;;;;;;;;;13.30;99.90;13.50;100006.00;;;;345267;28;96414;-91
2021/10/09 00:14:08;;;;;;;;;;;13.30;99.90;13.50;100000.00;;;;346051;28;83282;-91
2021/10/09 00:14:20;;;;;;;;;;;13.20;99.90;13.50;99989.00;;;;343876;28;96455;-91
2021/10/09 00:14:32;;;;;;;;;;;13.30;99.90;13.60;99997.00;;;;346056;28;83563;-91
2021/10/09 00:14:44;;;;;;;;;;;13.20;99.90;13.60;99994.00;;;;346679;28;95555;-91
2021/10/09 00:14:56;;;;;;;;;;;13.20;99.90;13.70;100001.00;;;;347398;28;82498;-91
2021/10/09 00:15:08;;;;;;;;;;;13.20;99.90;13.70;100002.00;;;;345951;28;96578;-92
2021/10/09 00:15:20;;;;;;;;;;;13.20;99.90;13.80;99997.00;;;;346077;28;83431;-91
2021/10/09 00:15:32;;;;;;;;;;;13.30;99.90;13.70;99993.00;;;;343906;28;96376;-91
2021/10/09 00:15:44;;;;;;;;;;;13.30;99.90;13.60;99991.00;;;;344560;28;82563;-91
2021/10/09 00:15:55;;;;;;;;;;;13.20;99.90;13.60;99995.00;;;;343970;28;96305;-91
2021/10/09 00:16:07;;;;;;;;;;;13.20;99.90;13.60;99991.00;;;;346071;28;83476;-91
2021/10/09 00:16:20;;;;;;;;;;;13.30;99.90;13.60;99998.00;;;;347991;27;96193;-91
2021/10/09 00:16:32;;;;;;;;;;;13.20;99.90;13.50;100005.00;;;;347529;28;82254;-91
2021/10/09 00:16:44;;;;;;;;;;;13.30;99.90;13.60;100000.00;;;;346694;28;96505;-91
2021/10/09 00:16:56;;;;;;;;;;;13.30;99.90;13.60;99995.00;;;;346015;28;83403;-91
2021/10/09 00:17:09;;;;;;;;;;;13.30;99.90;13.60;99994.00;;;;346672;28;95302;-91
2021/10/09 00:17:24;;;;;;;;;;;13.20;99.90;13.60;99996.00;;;;346072;28;82469;-92
2021/10/09 00:17:37;;;;;;;;;;;13.20;99.90;13.70;99999.00;;;;345189;28;96388;-91
2021/10/09 00:17:49;;;;;;;;;;;13.20;99.90;13.60;99996.00;;;;345979;28;83890;-91
2021/10/09 00:18:01;;;;;;;;;;;13.20;99.90;13.60;99987.00;;;;345285;28;96501;-92
2021/10/09 00:18:13;;;;;;;;;;;13.20;99.90;13.40;99992.00;;;;346966;28;82670;-91
2021/10/09 00:18:25;;;;;;;;;;;13.20;99.90;13.30;99994.00;;;;343543;28;96385;-91
2021/10/09 00:18:37;;;;;;;;;;;13.20;99.90;13.20;99994.00;;;;344666;28;82555;-91
2021/10/09 00:18:49;;;;;;;;;;;13.20;99.90;13.30;99986.00;;;;345311;28;95141;-92
2021/10/09 00:19:00;;;;;;;;;;;13.20;99.90;13.30;99993.00;;;;347395;28;83482;-91
2021/10/09 00:19:13;;;;;;;;;;;13.10;99.90;13.30;99994.00;;;;342412;28;96313;-91
2021/10/09 00:19:25;;;;;;;;;;;13.10;99.90;13.20;99994.00;;;;346000;28;83412;-91
2021/10/09 00:19:36;;;;;;;;;;;13.10;99.90;13.20;99998.00;;;;343875;28;95527;-91
2021/10/09 00:19:48;;;;;;;;;;;13.10;99.90;13.20;99997.00;;;;343345;28;83383;-91
2021/10/09 00:20:00;;;;;;;;;;;13.10;99.90;13.20;99999.00;;;;345075;28;95477;-91
2021/10/09 00:20:12;;;;;;;;;;;13.10;99.90;13.30;99996.00;;;;346060;28;82474;-92
2021/10/09 00:20:23;;;;;;;;;;;13.10;99.90;13.30;99989.00;;;;345148;28;97263;-92
2021/10/09 00:20:35;;;;;;;;;;;13.10;99.90;13.20;99996.00;;;;345911;28;83725;-92
2021/10/09 00:20:47;;;;;;;;;;;13.10;99.90;13.30;99997.00;;;;343909;28;95179;-92
2021/10/09 00:20:59;;;;;;;;;;;13.10;99.90;13.30;99995.00;;;;345910;28;83477;-91
2021/10/09 00:21:10;;;;;;;;;;;13.10;99.90;13.30;99999.00;;;;344836;28;96663;-91
2021/10/09 00:21:22;;;;;;;;;;;13.00;99.90;13.30;99994.00;;;;344727;28;82415;-91
2021/10/09 00:21:34;;;;;;;;;;;13.00;99.90;13.40;100005.00;;;;345221;28;95449;-92
2021/10/09 00:21:46;;;;;;;;;;;13.00;99.90;13.40;100000.00;;;;346064;28;83362;-92
2021/10/09 00:21:57;;;;;;;;;;;13.00;99.90;13.30;100001.00;;;;345156;28;96231;-91
2021/10/09 00:22:09;;;;;;;;;;;13.00;99.90;13.30;99997.00;;;;348886;27;82536;-92
2021/10/09 00:22:21;;;;;;;;;;;13.00;99.90;13.30;99996.00;;;;347865;27;97204;-92
2021/10/09 00:22:33;;;;;;;;;;;13.00;99.90;13.30;99990.00;;;;348864;27;83368;-92
2021/10/09 00:22:45;;;;;;;;;;;13.00;99.90;13.30;99992.00;;;;346637;28;95318;-92
2021/10/09 00:22:57;;;;;;;;;;;13.00;99.90;13.40;99996.00;;;;347405;28;82567;-92
2021/10/09 00:23:09;;;;;;;;;;;13.00;99.90;13.40;99998.00;;;;345168;28;96863;-91
2021/10/09 00:23:20;;;;;;;;;;;13.00;99.90;13.50;99994.00;;;;348867;27;83430;-92
2021/10/09 00:23:32;;;;;;;;;;;13.00;99.90;13.60;99994.00;;;;346775;28;96236;-92
2021/10/09 00:23:44;;;;;;;;;;;13.00;99.90;13.60;99992.00;;;;347495;28;83487;-92
2021/10/09 00:23:57;;;;;;;;;;;13.10;99.90;13.60;99999.00;;;;348131;27;96323;-91
2021/10/09 00:24:13;;;;;;;;;;;13.00;99.90;13.60;99993.00;;;;347209;28;82575;-91
2021/10/09 00:24:25;;;;;;;;;;;13.10;99.90;13.50;99998.00;;;;347999;27;97279;-92
2021/10/09 00:24:36;;;;;;;;;;;13.10;99.90;13.40;99986.00;;;;347551;28;82509;-91
2021/10/09 00:24:49;;;;;;;;;;;13.10;99.90;13.50;99993.00;;;;346760;28;96592;-92
2021/10/09 00:25:01;;;;;;;;;;;13.00;99.90;13.50;99992.00;;;;345935;28;83487;-92
2021/10/09 00:25:13;;;;;;;;;;;13.10;99.90;13.40;99995.00;;;;345321;28;96671;-92
2021/10/09 00:25:24;;;;;;;;;;;13.10;99.90;13.40;100002.00;;;;346172;28;83312;-91
2021/10/09 00:25:36;;;;;;;;;;;13.00;99.90;13.30;99995.00;;;;344086;28;94315;-92
2021/10/09 00:25:48;;;;;;;;;;;13.10;99.90;13.30;99992.00;;;;347446;28;83995;-92
2021/10/09 00:26:00;;;;;;;;;;;13.00;99.90;13.40;99993.00;;;;344009;28;95507;-92
2021/10/09 00:26:11;;;;;;;;;;;13.00;99.90;13.40;99998.00;;;;347479;28;82529;-91
2021/10/09 00:26:24;;;;;;;;;;;13.00;99.90;13.40;99986.00;;;;345173;28;96296;-92
2021/10/09 00:26:36;;;;;;;;;;;13.00;99.90;13.40;99996.00;;;;346079;28;82258;-92
2021/10/09 00:26:48;;;;;;;;;;;13.00;99.90;13.40;99993.00;;;;346460;28;96468;-92
2021/10/09 00:26:59;;;;;;;;;;;13.00;99.90;13.40;99998.00;;;;346055;28;83595;-92
2021/10/09 00:27:13;;;;;;;;;;;13.00;99.90;13.50;99993.00;;;;343734;28;96736;-91
2021/10/09 00:27:24;;;;;;;;;;;13.00;99.90;13.50;100004.00;;;;346183;28;83402;-91
2021/10/09 00:27:36;;;;;;;;;;;13.00;99.90;13.40;99997.00;;;;344091;28;96329;-91
2021/10/09 00:27:48;;;;;;;;;;;13.00;99.90;13.40;100003.00;;;;343539;28;83432;-91
2021/10/09 00:28:00;;;;;;;;;;;13.00;99.90;13.40;99998.00;;;;344161;28;95298;-92
2021/10/09 00:28:12;;;;;;;;;;;13.00;99.90;13.40;99998.00;;;;345819;28;83315;-91
2021/10/09 00:28:24;;;;;;;;;;;13.00;99.90;13.50;100002.00;;;;344005;28;97269;-92
2021/10/09 00:28:36;;;;;;;;;;;13.00;99.90;13.60;99995.00;;;;344939;28;83362;-92
2021/10/09 00:28:48;;;;;;;;;;;13.00;99.90;13.50;100003.00;;;;343936;28;95913;-91
2021/10/09 00:28:59;;;;;;;;;;;13.00;99.90;13.50;99996.00;;;;344962;28;82435;-91
2021/10/09 00:29:11;;;;;;;;;;;13.00;99.90;13.40;100002.00;;;;345500;28;95591;-91
2021/10/09 00:29:23;;;;;;;;;;;13.10;99.90;13.40;99994.00;;;;344860;28;83419;-91
2021/10/09 00:29:35;;;;;;;;;;;13.00;99.90;13.30;100002.00;;;;345610;28;96622;-91
2021/10/09 00:29:47;;;;;;;;;;;13.00;99.90;13.20;99997.00;;;;346267;28;82478;-91
2021/10/09 00:29:58;;;;;;;;;;;13.00;99.90;13.30;99998.00;;;;344125;28;96455;-92
2021/10/09 00:30:10;;;;;;;;;;;13.00;99.90;13.30;100007.00;;;;345897;28;83532;-91
2021/10/09 00:30:22;;;;;;;;;;;13.00;99.90;13.40;99999.00;;;;346666;28;98557;-92
2021/10/09 00:30:34;;;;;;;;;;;13.00;99.90;13.40;100002.00;;;;346339;28;83347;-92
2021/10/09 00:30:45;;;;;;;;;;;13.00;99.90;13.50;100005.00;;;;342839;28;95467;-92
2021/10/09 00:30:57;;;;;;;;;;;13.00;99.90;13.40;100002.00;;;;347687;28;83467;-91
2021/10/09 00:31:09;;;;;;;;;;;13.00;99.90;13.40;99999.00;;;;346591;28;95518;-91
2021/10/09 00:31:21;;;;;;;;;;;13.00;99.90;13.40;100000.00;;;;347874;28;82263;-91
2021/10/09 00:31:32;;;;;;;;;;;13.00;99.90;13.40;100006.00;;;;346994;28;95601;-92
2021/10/09 00:31:44;;;;;;;;;;;13.00;99.90;13.30;100004.00;;;;348743;27;83560;-91
2021/10/09 00:31:56;;;;;;;;;;;13.00;99.90;13.30;100004.00;;;;346908;28;96506;-91
2021/10/09 00:32:08;;;;;;;;;;;13.00;99.90;13.40;100004.00;;;;344760;28;83451;-91
2021/10/09 00:32:19;;;;;;;;;;;13.00;99.90;13.50;99997.00;;;;345418;28;95036;-91
2021/10/09 00:32:31;;;;;;;;;;;13.00;99.90;13.50;100001.00;;;;347516;28;82610;-92
2021/10/09 00:32:43;;;;;;;;;;;13.00;99.90;13.50;100003.00;;;;346898;28;96562;-92
2021/10/09 00:32:55;;;;;;;;;;;13.00;99.90;13.40;100002.00;;;;346362;28;82519;-91
2021/10/09 00:33:06;;;;;;;;;;;13.00;99.90;13.40;99999.00;;;;346059;28;95178;-91
2021/10/09 00:33:21;;;;;;;;;;;13.00;99.90;13.40;100003.00;;;;344889;28;83415;-92
2021/10/09 00:33:32;;;;;;;;;;;13.00;99.90;13.30;99997.00;;;;345543;28;96635;-91
2021/10/09 00:33:44;;;;;;;;;;;13.00;99.90;13.30;100001.00;;;;344824;28;83442;-91
2021/10/09 00:33:56;;;;;;;;;;;13.00;99.90;13.40;99998.00;;;;346600;28;95529;-91
2021/10/09 00:34:08;;;;;;;;;;;13.00;99.90;13.40;99997.00;;;;347603;28;83500;-91
2021/10/09 00:34:20;;;;;;;;;;;13.00;99.90;13.50;100005.00;;;;346759;28;97525;-92
2021/10/09 00:34:32;;;;;;;;;;;13.00;99.90;13.50;100002.00;;;;347719;28;83253;-91
2021/10/09 00:34:43;;;;;;;;;;;13.00;99.90;13.50;99999.00;;;;345269;28;95521;-92
2021/10/09 00:34:55;;;;;;;;;;;13.00;99.90;13.50;99998.00;;;;346079;28;83492;-91
2021/10/09 00:35:07;;;;;;;;;;;13.00;99.90;13.40;99995.00;;;;345187;28;94514;-91
2021/10/09 00:35:19;;;;;;;;;;;13.00;99.90;13.40;100003.00;;;;347523;28;84101;-92
2021/10/09 00:35:31;;;;;;;;;;;13.00;99.90;13.30;99997.00;;;;346937;28;96357;-91
2021/10/09 00:35:43;;;;;;;;;;;13.00;99.90;13.30;100002.00;;;;344597;28;83535;-91
2021/10/09 00:35:55;;;;;;;;;;;13.00;99.90;13.30;99998.00;;;;344128;28;96762;-92
2021/10/09 00:36:06;;;;;;;;;;;13.00;99.90;13.30;100007.00;;;;344741;28;83210;-92
2021/10/09 00:36:18;;;;;;;;;;;13.00;99.90;13.30;99999.00;;;;345308;28;97849;-92
2021/10/09 00:36:30;;;;;;;;;;;13.00;99.90;13.30;99993.00;;;;347679;28;82568;-92
2021/10/09 00:36:42;;;;;;;;;;;13.00;99.90;13.30;99997.00;;;;345535;28;95453;-92
2021/10/09 00:36:53;;;;;;;;;;;13.00;99.90;13.40;99998.00;;;;347683;28;83402;-92
2021/10/09 00:37:05;;;;;;;;;;;13.00;99.90;13.30;99997.00;;;;345422;28;95756;-91
2021/10/09 00:37:17;;;;;;;;;;;13.00;99.90;13.30;100000.00;;;;347660;28;82581;-92
2021/10/09 00:37:29;;;;;;;;;;;12.90;99.90;13.30;100003.00;;;;345483;28;96594;-91
2021/10/09 00:37:41;;;;;;;;;;;13.00;99.90;13.20;100005.00;;;;344957;28;82541;-92
2021/10/09 00:37:52;;;;;;;;;;;12.90;99.90;13.30;99995.00;;;;345518;28;95375;-92
2021/10/09 00:38:04;;;;;;;;;;;12.90;99.90;13.20;100001.00;;;;347673;28;83394;-92
2021/10/09 00:38:17;;;;;;;;;;;12.90;99.90;13.30;99998.00;;;;343983;28;97567;-91
2021/10/09 00:38:29;;;;;;;;;;;12.90;99.90;13.20;100003.00;;;;344848;28;83517;-91
2021/10/09 00:38:41;;;;;;;;;;;12.90;99.90;13.20;100002.00;;;;343972;28;96233;-92
2021/10/09 00:38:54;;;;;;;;;;;12.90;99.90;13.20;100003.00;;;;346265;28;83408;-91
2021/10/09 00:39:05;;;;;;;;;;;12.90;99.90;13.20;100005.00;;;;345973;28;95574;-91
2021/10/09 00:39:17;;;;;;;;;;;12.90;99.90;13.20;100000.00;;;;346239;28;83389;-91
2021/10/09 00:39:29;;;;;;;;;;;12.90;99.90;13.20;100005.00;;;;345544;28;95172;-92
2021/10/09 00:39:41;;;;;;;;;;;12.90;99.90;13.20;100003.00;;;;344967;28;83428;-91
2021/10/09 00:39:52;;;;;;;;;;;12.90;99.90;13.20;100004.00;;;;345453;28;95199;-92
2021/10/09 00:40:05;;;;;;;;;;;12.90;99.90;13.20;100002.00;;;;349109;27;82524;-92
2021/10/09 00:40:17;;;;;;;;;;;12.90;99.90;13.30;100002.00;;;;344000;28;97332;-91
2021/10/09 00:40:29;;;;;;;;;;;12.90;99.90;13.20;100004.00;;;;347669;28;83412;-91
2021/10/09 00:40:40;;;;;;;;;;;12.90;99.90;13.20;100002.00;;;;348033;27;95511;-92
2021/10/09 00:40:52;;;;;;;;;;;12.90;99.90;13.20;100008.00;;;;347740;28;82532;-92
2021/10/09 00:41:04;;;;;;;;;;;12.90;99.90;13.20;99999.00;;;;344134;28;96543;-92
2021/10/09 00:41:16;;;;;;;;;;;12.90;99.90;13.20;100002.00;;;;349010;27;82391;-92
2021/10/09 00:41:28;;;;;;;;;;;12.90;99.90;13.20;100000.00;;;;348364;27;96318;-91
2021/10/09 00:41:39;;;;;;;;;;;12.80;99.90;13.20;99995.00;;;;348943;27;83343;-91
2021/10/09 00:41:51;;;;;;;;;;;12.80;99.90;13.20;99999.00;;;;346838;28;95074;-91
2021/10/09 00:42:05;;;;;;;;;;;12.80;99.90;13.30;100007.00;;;;347368;28;83438;-91
2021/10/09 00:42:16;;;;;;;;;;;12.80;99.90;13.30;100003.00;;;;346092;28;96366;-92
2021/10/09 00:42:28;;;;;;;;;;;12.80;99.90;13.30;99996.00;;;;344848;28;83690;-92
2021/10/09 00:42:40;;;;;;;;;;;12.80;99.90;13.30;100000.00;;;;345312;28;95316;-92
2021/10/09 00:42:52;;;;;;;;;;;12.80;99.90;13.20;100001.00;;;;346288;28;83402;-91
2021/10/09 00:43:04;;;;;;;;;;;12.80;99.90;13.20;99990.00;;;;345546;28;93676;-92
2021/10/09 00:43:15;;;;;;;;;;;12.80;99.90;13.30;99999.00;;;;346247;28;82529;-92
2021/10/09 00:43:27;;;;;;;;;;;12.80;99.90;13.40;100002.00;;;;348022;27;95799;-92
2021/10/09 00:43:39;;;;;;;;;;;12.90;99.90;13.30;100006.00;;;;348967;27;83322;-91
2021/10/09 00:43:51;;;;;;;;;;;12.80;99.90;13.20;100010.00;;;;345552;28;93785;-92
2021/10/09 00:44:12;;;;;;;;;;;12.90;99.90;13.20;99999.00;;;;344760;28;83972;-91
2021/10/09 00:44:24;;;;;;;;;;;12.80;99.90;13.10;100002.00;;;;346700;28;98097;-92
2021/10/09 00:44:36;;;;;;;;;;;12.80;99.90;13.10;99999.00;;;;346289;28;83378;-92
2021/10/09 00:44:48;;;;;;;;;;;12.80;99.90;13.20;100003.00;;;;346670;28;95547;-92
2021/10/09 00:45:00;;;;;;;;;;;12.80;99.90;13.20;100008.00;;;;348695;27;83580;-91
2021/10/09 00:45:12;;;;;;;;;;;12.80;99.90;13.20;100000.00;;;;345768;28;95182;-91
2021/10/09 00:45:24;;;;;;;;;;;12.80;99.90;13.20;100002.00;;;;344851;28;83534;-91
2021/10/09 00:45:36;;;;;;;;;;;12.80;99.90;13.20;99998.00;;;;344052;28;95570;-92
2021/10/09 00:45:52;;;;;;;;;;;12.80;99.90;13.20;100001.00;;;;346226;28;83294;-91
2021/10/09 00:46:04;;;;;;;;;;;12.80;99.90;13.20;100009.00;;;;346915;28;96573;-92
2021/10/09 00:46:16;;;;;;;;;;;12.80;99.90;13.20;100004.00;;;;346049;28;83470;-92
2021/10/09 00:46:28;;;;;;;;;;;12.80;99.90;13.30;99999.00;;;;345364;28;96374;-92
2021/10/09 00:46:40;;;;;;;;;;;12.80;99.90;13.40;99999.00;;;;346362;28;82533;-92
2021/10/09 00:46:52;;;;;;;;;;;12.80;99.90;13.40;99998.00;;;;345494;28;95295;-92
2021/10/09 00:47:04;;;;;;;;;;;12.80;99.90;13.30;99998.00;;;;347612;28;84294;-92
2021/10/09 00:47:16;;;;;;;;;;;12.80;99.90;13.30;99996.00;;;;345488;28;95094;-92
2021/10/09 00:47:28;;;;;;;;;;;12.80;99.90;13.30;100003.00;;;;345970;28;82425;-91
2021/10/09 00:47:40;;;;;;;;;;;12.80;99.90;13.20;100004.00;;;;345350;28;95298;-91
2021/10/09 00:47:51;;;;;;;;;;;12.80;99.90;13.10;100003.00;;;;347581;28;82603;-91
2021/10/09 00:48:03;;;;;;;;;;;12.80;99.90;13.10;100009.00;;;;345148;28;95437;-91
2021/10/09 00:48:15;;;;;;;;;;;12.80;99.90;13.20;99999.00;;;;345643;28;82518;-91
2021/10/09 00:48:27;;;;;;;;;;;12.80;99.90;13.20;100006.00;;;;343700;28;96784;-91
2021/10/09 00:48:39;;;;;;;;;;;12.80;99.90;13.30;100003.00;;;;346345;28;83423;-91
2021/10/09 00:48:51;;;;;;;;;;;12.80;99.90;13.30;100005.00;;;;344121;28;96246;-91
2021/10/09 00:49:03;;;;;;;;;;;12.80;99.90;13.20;100003.00;;;;346310;28;82498;-91
2021/10/09 00:49:15;;;;;;;;;;;12.80;99.90;13.20;100005.00;;;;348123;27;95610;-91
2021/10/09 00:49:30;;;;;;;;;;;12.80;99.90;13.20;100006.00;;;;347648;28;83408;-92
2021/10/09 00:49:42;;;;;;;;;;;12.80;99.90;13.10;100005.00;;;;345206;28;95709;-92
2021/10/09 00:49:54;;;;;;;;;;;12.70;99.90;13.20;100007.00;;;;346236;28;84076;-91
2021/10/09 00:50:06;;;;;;;;;;;12.80;99.90;13.20;100003.00;;;;345436;28;96014;-91
2021/10/09 00:50:18;;;;;;;;;;;12.70;99.90;13.20;100008.00;;;;344766;28;83360;-91
2021/10/09 00:50:30;;;;;;;;;;;12.70;99.90;13.20;100003.00;;;;345343;28;97671;-91
2021/10/09 00:50:42;;;;;;;;;;;12.80;99.90;13.20;99999.00;;;;346238;28;83461;-91
2021/10/09 00:50:54;;;;;;;;;;;12.70;99.90;13.10;100006.00;;;;346740;28;94182;-92
2021/10/09 00:51:05;;;;;;;;;;;12.80;99.90;13.00;99999.00;;;;343399;28;83325;-91
2021/10/09 00:51:17;;;;;;;;;;;12.80;99.90;13.10;100005.00;;;;345302;28;94642;-91
2021/10/09 00:51:29;;;;;;;;;;;12.70;99.90;13.10;100009.00;;;;346401;28;82414;-92
2021/10/09 00:51:44;;;;;;;;;;;12.80;99.90;13.00;100009.00;;;;346842;28;95615;-91
2021/10/09 00:51:57;;;;;;;;;;;12.70;99.90;13.10;100007.00;;;;347654;28;83362;-92
2021/10/09 00:52:09;;;;;;;;;;;12.70;99.90;13.10;99996.00;;;;346842;28;95399;-92
2021/10/09 00:52:21;;;;;;;;;;;12.70;99.90;13.20;100002.00;;;;350358;27;84270;-91
2021/10/09 00:52:34;;;;;;;;;;;12.70;99.90;13.20;100000.00;;;;344082;28;96529;-92
2021/10/09 00:52:46;;;;;;;;;;;12.70;99.90;13.20;100003.00;;;;347715;28;82320;-91
2021/10/09 00:52:57;;;;;;;;;;;12.70;99.90;13.30;100009.00;;;;346827;28;95460;-92
2021/10/09 00:53:10;;;;;;;;;;;12.70;99.90;13.20;100005.00;;;;347538;27;83466;-92
2021/10/09 00:53:22;;;;;;;;;;;12.70;99.90;13.10;100007.00;;;;346959;28;95151;-91
2021/10/09 00:53:34;;;;;;;;;;;12.70;99.90;13.10;100007.00;;;;349047;27;83424;-92
2021/10/09 00:53:46;;;;;;;;;;;12.70;99.90;13.10;100002.00;;;;346913;28;95096;-91
2021/10/09 00:53:59;;;;;;;;;;;12.70;99.90;13.00;100004.00;;;;346213;28;82509;-92
2021/10/09 00:54:11;;;;;;;;;;;12.70;99.90;13.10;100005.00;;;;349439;27;96307;-91
2021/10/09 00:54:23;;;;;;;;;;;12.70;99.90;13.10;100005.00;;;;346176;28;83536;-91
2021/10/09 00:54:36;;;;;;;;;;;12.70;99.90;13.10;100012.00;;;;345315;28;96445;-91
2021/10/09 00:54:48;;;;;;;;;;;12.70;99.90;13.00;100003.00;;;;347639;28;83381;-91
2021/10/09 00:55:01;;;;;;;;;;;12.70;99.90;13.00;100002.00;;;;348313;27;95218;-91
2021/10/09 00:55:13;;;;;;;;;;;12.70;99.90;13.10;100014.00;;;;346238;28;83202;-92
2021/10/09 00:55:24;;;;;;;;;;;12.70;99.90;13.00;99996.00;;;;346820;28;96524;-91
2021/10/09 00:55:36;;;;;;;;;;;12.70;99.90;13.00;100010.00;;;;347543;28;83514;-91
2021/10/09 00:55:49;;;;;;;;;;;12.70;99.90;13.10;100003.00;;;;346855;27;95402;-91
2021/10/09 00:56:01;;;;;;;;;;;12.60;99.90;13.00;100002.00;;;;348993;27;83343;-91
2021/10/09 00:56:12;;;;;;;;;;;12.70;99.90;13.00;100012.00;;;;346971;28;95244;-92
2021/10/09 00:56:25;;;;;;;;;;;12.70;99.90;13.00;100005.00;;;;347489;27;83394;-91
2021/10/09 00:56:36;;;;;;;;;;;12.70;99.90;13.00;100000.00;;;;345317;28;97609;-91
2021/10/09 00:56:48;;;;;;;;;;;12.70;99.90;13.00;100007.00;;;;347650;28;83486;-92
2021/10/09 00:57:01;;;;;;;;;;;12.70;99.90;13.00;100004.00;;;;346820;28;96336;-92
2021/10/09 00:57:16;;;;;;;;;;;12.70;99.90;13.00;100005.00;;;;345305;28;83417;-92
2021/10/09 00:57:28;;;;;;;;;;;12.70;99.90;12.90;100014.00;;;;346816;28;96510;-92
2021/10/09 00:57:40;;;;;;;;;;;12.60;99.90;12.90;100006.00;;;;347564;28;83336;-92
2021/10/09 00:57:51;;;;;;;;;;;12.60;99.90;12.90;100007.00;;;;345335;28;96407;-91
2021/10/09 00:58:03;;;;;;;;;;;12.60;99.90;13.00;100002.00;;;;347704;28;82578;-92
2021/10/09 00:58:15;;;;;;;;;;;12.60;99.90;13.10;100013.00;;;;345229;28;94865;-92
2021/10/09 00:58:28;;;;;;;;;;;12.60;99.90;13.00;100004.00;;;;344718;28;83430;-91
2021/10/09 00:58:39;;;;;;;;;;;12.60;99.90;13.00;100006.00;;;;345426;28;98069;-92
2021/10/09 00:58:51;;;;;;;;;;;12.60;99.90;13.00;100004.00;;;;344858;28;83515;-92
2021/10/09 00:59:03;;;;;;;;;;;12.60;99.90;13.00;100012.00;;;;342691;28;96294;-92
2021/10/09 00:59:15;;;;;;;;;;;12.60;99.90;13.00;100009.00;;;;346256;28;82538;-92
2021/10/09 00:59:27;;;;;;;;;;;12.60;99.90;13.00;100007.00;;;;345401;28;96850;-91
2021/10/09 00:59:39;;;;;;;;;;;12.60;99.90;13.00;100012.00;;;;347593;28;83354;-92
2021/10/09 00:59:51;;;;;;;;;;;12.70;99.90;13.00;100003.00;;;;344160;28;95029;-92